Time;durP1;ratioP1;P1;durP2;ratioP2;P2;SDS_P1;SDS_P2;PMS_P1;PMS_P2;Temp;Humidity;BMP_temperature;BMP_pressure;BME280_temperature;BME280_humidity;BME280_pressure;Samples;Min_cycle;Max_cycle;Signal;HPM_P1;HPM_P2
2023/04/20 00:00:33;;;;;;;19.53;14.73;;;;;;;11.54;100.00;-7255.25;5155013;27;20186;-60
2023/04/20 00:03:02;;;;;;;17.47;14.63;;;;;;;11.63;100.00;-6936.44;5155265;27;20285;-61
2023/04/20 00:05:30;;;;;;;30.20;16.13;;;;;;;11.61;100.00;-8213.56;5154800;27;20190;-61
2023/04/20 00:07:58;;;;;;;18.83;14.67;;;;;;;11.52;100.00;-9170.31;5154729;27;20273;-60
2023/04/20 00:10:26;;;;;;;19.70;14.70;;;;;;;11.36;100.00;-9168.88;5155064;27;20178;-60
2023/04/20 00:12:53;;;;;;;16.60;15.07;;;;;;;11.19;100.00;-10123.91;5154480;27;20285;-61
2023/04/20 00:15:20;;;;;;;16.23;14.77;;;;;;;11.37;100.00;-10125.88;5154569;27;20202;-60
2023/04/20 00:17:47;;;;;;;15.67;14.00;;;;;;;11.35;100.00;-10444.56;5154811;27;20273;-60
2023/04/20 00:20:15;;;;;;;15.33;13.83;;;;;;;11.42;100.00;-10445.41;5154834;27;20192;-59
2023/04/20 00:22:42;;;;;;;15.97;14.33;;;;;;;11.42;100.00;-10445.44;5154557;27;20186;-61
2023/04/20 00:25:10;;;;;;;15.30;13.87;;;;;;;11.44;100.00;-10764.63;5154730;27;20182;-60
2023/04/20 00:27:37;;;;;;;15.17;14.00;;;;;;;11.42;100.00;-10445.41;5154752;27;20188;-59
2023/04/20 00:30:04;;;;;;;15.57;14.00;;;;;;;11.55;100.00;-9808.84;5154618;27;20189;-60
2023/04/20 00:32:31;;;;;;;14.07;12.93;;;;;;;11.48;100.00;-10127.06;5154622;27;20668;-59
2023/04/20 00:34:58;;;;;;;15.67;13.70;;;;;;;11.57;100.00;-10447.16;5154442;27;20712;-60
2023/04/20 00:37:27;;;;;;;13.83;12.93;;;;;;;11.63;100.00;-9490.59;5154210;27;20196;-60
2023/04/20 00:39:55;;;;;;;16.67;13.70;;;;;;;11.59;100.00;-8851.81;5154145;27;20190;-60
2023/04/20 00:42:22;;;;;;;19.77;15.13;;;;;;;11.46;100.00;-8850.72;5154342;27;20628;-61
2023/04/20 00:44:50;;;;;;;19.07;13.93;;;;;;;11.44;100.00;-10126.66;5154109;27;20273;-60
2023/04/20 00:47:17;;;;;;;15.13;14.07;;;;;;;11.55;100.00;-10127.91;5154112;27;20192;-61
2023/04/20 00:49:44;;;;;;;15.43;13.93;;;;;;;11.63;100.00;-9809.69;5154257;27;20221;-59
2023/04/20 00:52:11;;;;;;;15.80;14.33;;;;;;;11.70;100.00;-10129.59;5154117;27;20186;-60
2023/04/20 00:54:40;;;;;;;13.60;12.23;;;;;;;11.69;100.00;-8852.75;5153879;27;20186;-60
2023/04/20 00:57:07;;;;;;;12.60;11.47;;;;;;;11.71;100.00;-6617.50;5153793;27;20292;-60
2023/04/20 00:59:34;;;;;;;13.03;11.60;;;;;;;11.70;100.00;-5658.94;5153757;27;20211;-59
2023/04/20 01:02:02;;;;;;;13.27;12.07;;;;;;;11.61;100.00;-5019.50;5153751;27;20648;-59
2023/04/20 01:04:29;;;;;;;16.27;11.60;;;;;;;11.67;100.00;-3741.03;5153745;27;20191;-60
2023/04/20 01:06:56;;;;;;;14.73;13.10;;;;;;;11.68;100.00;-4380.44;5153700;27;20186;-59
2023/04/20 01:09:23;;;;;;;12.43;11.10;;;;;;;11.38;100.00;-5018.84;5153593;27;20221;-59
2023/04/20 01:11:51;;;;;;;10.70;9.87;;;;;;;11.36;100.00;-6934.88;5153927;27;20204;-60
2023/04/20 01:14:18;;;;;;;10.33;9.73;;;;;;;11.50;100.00;-6616.31;5153493;27;20240;-59
2023/04/20 01:16:46;;;;;;;11.17;10.27;;;;;;;11.60;100.00;-6936.25;5153633;27;20237;-61
2023/04/20 01:19:14;;;;;;;10.80;9.87;;;;;;;11.44;100.00;-6296.69;5153878;27;20605;-62
2023/04/20 01:21:41;;;;;;;10.50;9.83;;;;;;;11.65;100.00;-5978.22;5153413;27;20218;-60
2023/04/20 01:24:10;;;;;;;11.20;10.33;;;;;;;11.58;100.00;-5658.44;5153406;27;20185;-60
2023/04/20 01:26:37;;;;;;;10.63;10.00;;;;;;;11.62;100.00;-5978.09;5153417;27;20189;-60
2023/04/20 01:29:05;;;;;;;10.80;10.03;;;;;;;11.45;100.00;-5977.34;5153318;27;20224;-59
2023/04/20 01:31:32;;;;;;;10.83;10.13;;;;;;;11.32;100.00;-7253.84;5153575;27;20615;-61
2023/04/20 01:33:59;;;;;;;11.80;10.67;;;;;;;11.42;100.00;-7573.69;5153613;27;20563;-60
2023/04/20 01:36:27;;;;;;;10.63;9.93;;;;;;;11.52;100.00;-7574.38;5153540;27;20663;-59
2023/04/20 01:38:54;;;;;;;11.07;10.33;;;;;;;11.56;100.00;-6616.66;5153295;27;20257;-59
2023/04/20 01:41:22;;;;;;;9.10;8.50;;;;;;;11.56;100.00;-6297.28;5153468;27;20276;-59
2023/04/20 01:43:49;;;;;;;10.43;9.43;;;;;;;11.54;100.00;-5977.72;5153179;27;20264;-60
2023/04/20 01:46:16;;;;;;;11.47;10.10;;;;;;;11.51;100.00;-5019.19;5153193;27;20274;-60
2023/04/20 01:48:43;;;;;;;12.33;9.90;;;;;;;11.57;100.00;-3740.97;5153445;27;20692;-60
2023/04/20 01:51:10;;;;;;;10.80;8.73;;;;;;;11.52;100.00;-3421.25;5153139;27;20182;-60
2023/04/20 01:53:37;;;;;;;10.70;10.00;;;;;;;11.61;100.00;-3101.56;5153435;27;20177;-60
2023/04/20 01:56:04;;;;;;;11.20;10.37;;;;;;;11.41;100.00;-4060.41;5153250;27;20641;-61
2023/04/20 01:58:33;;;;;;;9.97;9.37;;;;;;;11.20;100.00;-6295.47;5153048;27;20250;-60
2023/04/20 02:01:01;;;;;;;8.77;8.17;;;;;;;11.29;100.00;-6934.44;5155826;27;20281;-60
2023/04/20 02:03:28;;;;;;;11.47;10.67;;;;;;;11.31;100.00;-8211.19;5157569;27;20637;-60
2023/04/20 02:05:55;;;;;;;10.27;9.47;;;;;;;11.34;100.00;-8849.63;5157217;27;20291;-60
2023/04/20 02:08:23;;;;;;;9.97;9.40;;;;;;;10.92;100.00;-9483.44;5157179;27;20189;-60
2023/04/20 02:10:49;;;;;;;11.00;10.20;;;;;;;11.15;100.00;-10442.28;5157375;27;20616;-60
2023/04/20 02:13:16;;;;;;;11.30;10.70;;;;;;;11.29;100.00;-12675.25;5157171;27;20264;-60
2023/04/20 02:15:45;;;;;;;11.23;10.63;;;;;;;11.36;100.00;-12676.25;5157145;27;20235;-59
2023/04/20 02:18:14;;;;;;;12.27;11.23;;;;;;;11.47;100.00;-12359.19;5156977;27;20269;-61
2023/04/20 02:20:41;;;;;;;11.17;10.67;;;;;;;11.47;100.00;-12359.19;5157187;27;20182;-61
2023/04/20 02:23:08;;;;;;;10.97;10.27;;;;;;;11.38;100.00;-12039.19;5157267;27;20238;-60
2023/04/20 02:25:35;;;;;;;10.20;9.57;;;;;;;11.42;100.00;-11083.28;5156800;27;20273;-60
2023/04/20 02:28:02;;;;;;;10.70;10.20;;;;;;;11.38;100.00;-10444.91;5156775;27;20213;-60
2023/04/20 02:30:29;;;;;;;10.73;10.23;;;;;;;11.44;100.00;-9807.66;5157032;27;20625;-61
2023/04/20 02:32:58;;;;;;;11.20;10.40;;;;;;;11.35;100.00;-11082.38;5156697;27;20196;-59
2023/04/20 02:35:25;;;;;;;11.93;10.93;;;;;;;11.36;100.00;-11720.13;5156622;27;20276;-60
2023/04/20 02:37:52;;;;;;;12.23;11.07;;;;;;;11.36;100.00;-12038.81;5156824;27;20274;-59
2023/04/20 02:40:19;;;;;;;11.47;10.67;;;;;;;11.42;100.00;-12358.53;5156557;27;20281;-60
2023/04/20 02:42:46;;;;;;;12.57;11.80;;;;;;;11.27;100.00;-12674.97;5156564;27;20272;-60
2023/04/20 02:45:14;;;;;;;13.63;11.83;;;;;;;11.34;100.00;-12675.97;5156849;27;20618;-59
2023/04/20 02:47:41;;;;;;;11.73;10.90;;;;;;;11.34;100.00;-12994.63;5156685;27;20555;-59
2023/04/20 02:50:10;;;;;;;13.33;11.43;;;;;;;11.15;100.00;-12673.03;5156701;27;20269;-61
2023/04/20 02:52:37;;;;;;;11.77;10.90;;;;;;;11.06;100.00;-13627.19;5156682;27;20541;-60
2023/04/20 02:55:05;;;;;;;12.43;11.57;;;;;;;11.19;100.00;-13947.88;5156530;27;20209;-60
2023/04/20 02:57:32;;;;;;;11.90;11.10;;;;;;;11.12;100.00;-13309.72;5156147;27;20206;-60
2023/04/20 02:59:59;;;;;;;11.50;10.57;;;;;;;11.18;100.00;-13629.22;5156541;27;20552;-59
2023/04/20 03:02:26;;;;;;;12.50;10.37;;;;;;;11.17;100.00;-12992.00;5156177;27;20186;-59
2023/04/20 03:04:53;;;;;;;12.93;10.80;;;;;;;11.24;100.00;-12674.41;5156307;27;20562;-60
2023/04/20 03:07:22;;;;;;;12.07;10.97;;;;;;;11.15;100.00;-12354.44;5156061;27;20226;-60
2023/04/20 03:09:49;;;;;;;12.73;11.43;;;;;;;11.18;100.00;-12036.31;5155952;27;20215;-60
2023/04/20 03:12:17;;;;;;;14.37;12.83;;;;;;;11.25;100.00;-12674.66;5154997;27;20239;-60
2023/04/20 03:14:44;;;;;;;16.77;13.57;;;;;;;11.33;100.00;-13631.75;5155657;27;20226;-60
2023/04/20 03:17:11;;;;;;;16.57;14.63;;;;;;;11.30;100.00;-13631.25;5155828;27;20217;-60
2023/04/20 03:19:38;;;;;;;19.97;18.17;;;;;;;11.11;100.00;-14583.22;5156104;27;20664;-61
2023/04/20 03:22:05;;;;;;;20.60;18.63;;;;;;;11.38;100.00;-14906.69;5156053;27;20648;-60
2023/04/20 03:24:34;;;;;;;28.27;20.57;;;;;;;11.43;100.00;-14907.63;5155707;27;20178;-61
2023/04/20 03:27:03;;;;;;;22.07;19.90;;;;;;;11.48;100.00;-14908.59;5155866;27;20629;-59
2023/04/20 03:29:30;;;;;;;23.80;21.23;;;;;;;11.54;100.00;-14909.72;5155981;27;20210;-60
2023/04/20 03:31:57;;;;;;;27.43;23.10;;;;;;;11.49;100.00;-14908.78;5155523;27;20566;-60
2023/04/20 03:34:25;;;;;;;24.77;22.17;;;;;;;11.48;100.00;-14908.50;5155856;27;20613;-60
2023/04/20 03:36:53;;;;;;;25.90;22.63;;;;;;;11.46;100.00;-14589.66;5155392;27;20220;-61
2023/04/20 03:39:20;;;;;;;33.17;22.47;;;;;;;11.55;100.00;-14591.25;5155779;27;20699;-60
2023/04/20 03:41:48;;;;;;;25.07;22.23;;;;;;;11.57;100.00;-14910.28;5155339;27;20186;-60
2023/04/20 03:44:15;;;;;;;34.13;23.80;;;;;;;11.58;100.00;-15228.97;5155208;27;20269;-61
2023/04/20 03:46:42;;;;;;;41.13;22.60;;;;;;;11.56;100.00;-15228.66;5155661;27;20189;-60
2023/04/20 03:49:09;;;;;;;29.90;22.10;;;;;;;11.57;100.00;-15228.84;5155167;27;20214;-60
2023/04/20 03:51:37;;;;;;;33.20;22.03;;;;;;;11.67;100.00;-14912.09;5155419;27;20218;-60
2023/04/20 03:54:04;;;;;;;43.33;21.47;;;;;;;11.73;100.00;-14913.34;5137130;27;20624;-60
2023/04/20 03:56:32;;;;;;;26.37;21.03;;;;;;;11.46;100.00;-15226.81;5155352;27;20621;-60
2023/04/20 03:59:00;;;;;;;28.67;21.23;;;;;;;11.84;100.00;-15871.44;5136656;27;20190;-61
2023/04/20 04:01:28;;;;;;;28.60;19.37;;;;;;;12.18;100.00;-15559.38;5155265;27;20629;-61
2023/04/20 04:03:55;;;;;;;24.53;18.03;;;;;;;12.35;100.00;-15562.88;5155220;27;20720;-60
2023/04/20 04:06:22;;;;;;;19.53;17.53;;;;;;;12.64;100.00;-14611.16;5154928;27;20269;-60
2023/04/20 04:08:49;;;;;;;23.17;14.63;;;;;;;12.86;100.00;-12379.50;5154793;27;20274;-59
2023/04/20 04:11:16;;;;;;;30.13;14.93;;;;;;;13.15;100.00;-9185.91;5136487;27;20227;-59
2023/04/20 04:13:43;;;;;;;21.00;14.90;;;;;;;13.22;100.00;-3421.72;5154437;27;20253;-60
2023/04/20 04:16:12;;;;;;;33.47;14.30;;;;;;;13.44;100.00;8142.50;5154562;27;20186;-59
2023/04/20 04:18:43;;;;;;;15.10;11.10;;;;;;;13.80;100.00;15885.56;5154854;27;20636;-59
2023/04/20 04:21:10;;;;;;;11.30;10.40;;;;;;;13.81;100.00;26877.44;5154870;27;20218;-60
2023/04/20 04:23:37;;;;;;;18.43;11.20;;;;;;;13.82;100.00;26230.34;5154448;27;20625;-60
2023/04/20 04:26:05;;;;;;;13.30;12.20;;;;;;;13.84;100.00;28822.19;5154447;27;20188;-61
2023/04/20 04:28:32;;;;;;;16.27;13.50;;;;;;;13.57;100.00;24277.16;5154454;27;20182;-60
2023/04/20 04:31:00;;;;;;;15.97;14.47;;;;;;;13.50;100.00;20072.72;5154355;27;20178;-59
2023/04/20 04:33:28;;;;;;;17.23;15.13;;;;;;;13.71;100.00;16528.50;5154432;27;20178;-60
2023/04/20 04:35:56;;;;;;;25.60;14.93;;;;;;;13.76;100.00;19759.31;5154093;27;20227;-59
2023/04/20 04:38:23;;;;;;;20.30;14.50;;;;;;;13.61;100.00;18139.00;5154255;27;20283;-60
2023/04/20 04:40:51;;;;;;;14.77;13.40;;;;;;;13.67;100.00;14591.38;5154528;27;20605;-60
2023/04/20 04:43:19;;;;;;;17.87;15.80;;;;;;;13.66;100.00;9434.38;5154469;27;20189;-60
2023/04/20 04:45:46;;;;;;;16.27;14.40;;;;;;;13.57;100.00;7179.47;5154063;27;20182;-59
2023/04/20 04:48:13;;;;;;;15.40;14.10;;;;;;;13.45;100.00;5890.84;5154118;27;20231;-59
2023/04/20 04:50:42;;;;;;;13.70;12.60;;;;;;;13.31;100.00;4602.91;5154313;27;20623;-60
2023/04/20 04:53:09;;;;;;;16.83;12.93;;;;;;;13.21;100.00;2674.34;5154546;27;20217;-60
2023/04/20 04:55:36;;;;;;;20.60;12.70;;;;;;;13.28;100.00;4281.25;5153959;27;20182;-60
2023/04/20 04:58:03;;;;;;;14.37;10.83;;;;;;;13.37;100.00;8462.88;5154017;27;20209;-60
2023/04/20 05:00:30;;;;;;;11.40;10.03;;;;;;;13.55;100.00;11042.38;5154122;27;20224;-59
2023/04/20 05:02:58;;;;;;;12.93;10.27;;;;;;;13.52;100.00;12652.66;5154014;27;20190;-61
2023/04/20 05:05:25;;;;;;;16.70;9.73;;;;;;;13.57;100.00;13298.75;5154073;27;20193;-60
2023/04/20 05:07:53;;;;;;;15.37;9.10;;;;;;;13.51;100.00;12330.28;5153813;27;20182;-59
2023/04/20 05:10:21;;;;;;;13.00;8.67;;;;;;;13.56;100.00;13620.72;5153696;27;20274;-60
2023/04/20 05:12:48;;;;;;;15.27;9.93;;;;;;;13.45;100.00;9751.97;5153606;27;20296;-61
2023/04/20 05:15:16;;;;;;;26.63;11.67;;;;;;;13.56;100.00;7822.78;5153849;27;20182;-60
2023/04/20 05:17:43;;;;;;;40.70;12.03;;;;;;;13.65;100.00;7824.41;5153383;27;20732;-60
2023/04/20 05:20:11;;;;;;;15.60;11.97;;;;;;;13.54;100.00;7178.94;5153450;27;20273;-60
2023/04/20 05:22:38;;;;;;;13.37;11.97;;;;;;;13.67;100.00;6537.50;5153389;27;20229;-61
2023/04/20 05:25:08;;;;;;;24.87;12.90;;;;;;;13.76;100.00;5895.38;5153178;27;20193;-59
2023/04/20 05:27:35;;;;;;;18.93;12.83;;;;;;;13.80;100.00;4930.78;5153061;27;20178;-59
2023/04/20 05:30:02;;;;;;;29.27;12.33;;;;;;;13.84;100.00;4609.66;5153268;27;20269;-59
2023/04/20 05:32:29;;;;;;;22.73;11.27;;;;;;;13.77;100.00;7826.59;5153249;27;20273;-59
2023/04/20 05:34:57;;;;;;;20.10;10.23;;;;;;;13.67;100.00;8790.56;5152323;27;20277;-60
2023/04/20 05:37:24;;;;;;;17.73;11.23;;;;;;;13.73;100.00;12013.41;5152801;27;20206;-58
2023/04/20 05:39:51;;;;;;;24.93;11.70;;;;;;;13.70;100.00;12657.47;5152885;27;20299;-58
2023/04/20 05:42:19;;;;;;;17.33;10.67;;;;;;;13.65;100.00;13945.66;5152817;27;20350;-59
2023/04/20 05:44:49;;;;;;;11.97;10.83;;;;;;;13.74;100.00;16852.09;5152993;27;20238;-59
2023/04/20 05:47:16;;;;;;;11.70;10.53;;;;;;;13.51;100.00;18135.69;5153069;27;20277;-60
2023/04/20 05:49:44;;;;;;;11.23;9.80;;;;;;;13.76;100.00;18144.06;5152704;27;20277;-60
2023/04/20 05:52:11;;;;;;;11.00;10.10;;;;;;;13.69;100.00;17818.91;5152864;27;20205;-58
2023/04/20 05:54:39;;;;;;;12.40;11.60;;;;;;;13.66;100.00;17172.41;5152590;27;20221;-61
2023/04/20 05:57:06;;;;;;;20.20;11.47;;;;;;;13.74;100.00;17820.63;5152810;27;20696;-61
2023/04/20 05:59:34;;;;;;;12.13;11.13;;;;;;;13.78;100.00;16853.41;5152828;27;20271;-60
2023/04/20 06:02:01;;;;;;;16.03;12.10;;;;;;;13.59;100.00;17170.09;5152667;27;20621;-61
2023/04/20 06:04:29;;;;;;;14.03;12.80;;;;;;;13.82;100.00;17823.38;5152547;27;20186;-60
2023/04/20 06:06:56;;;;;;;14.37;12.60;;;;;;;13.86;100.00;17178.91;5152786;27;20186;-60
2023/04/20 06:09:23;;;;;;;17.23;13.70;;;;;;;13.68;100.00;12656.81;5152418;27;20183;-60
2023/04/20 06:11:50;;;;;;;13.17;11.87;;;;;;;13.77;100.00;11691.94;5152511;27;20222;-60
2023/04/20 06:14:17;;;;;;;16.77;13.63;;;;;;;13.78;100.00;11047.72;5133943;27;20233;-60
2023/04/20 06:16:46;;;;;;;13.63;12.43;;;;;;;13.95;100.00;12018.88;5152536;27;20193;-60
2023/04/20 06:19:13;;;;;;;17.63;12.63;;;;;;;13.99;100.00;10730.28;5152622;27;20182;-60
2023/04/20 06:21:41;;;;;;;15.33;13.00;;;;;;;13.95;100.00;10406.97;5152391;27;20623;-61
2023/04/20 06:24:08;;;;;;;20.13;12.07;;;;;;;14.10;100.00;13312.78;5152347;27;20188;-60
2023/04/20 06:26:35;;;;;;;14.90;12.10;;;;;;;14.19;100.00;14283.56;5152363;27;20270;-60
2023/04/20 06:29:02;;;;;;;22.33;11.80;;;;;;;14.19;100.00;16866.84;5152283;27;20273;-61
2023/04/20 06:31:29;;;;;;;19.53;11.27;;;;;;;14.31;100.00;19132.91;5152231;27;20190;-62
2023/04/20 06:33:58;;;;;;;25.07;12.00;;;;;;;14.40;100.00;20106.59;5152221;27;20282;-60
2023/04/20 06:36:26;;;;;;;21.50;11.13;;;;;;;14.42;100.00;23343.44;5152482;27;20214;-60
2023/04/20 06:38:53;;;;;;;16.70;10.93;;;;;;;14.47;100.00;23993.50;5152045;27;20202;-60
2023/04/20 06:41:21;;;;;;;22.17;11.13;;;;;;;14.52;100.00;23995.72;5152345;27;20594;-61
2023/04/20 06:43:48;;;;;;;17.83;11.17;;;;;;;14.46;100.00;28854.66;5152217;27;20182;-60
2023/04/20 06:46:15;;;;;;;14.73;10.90;;;;;;;14.65;100.00;30811.56;5135346;27;20182;-60
2023/04/20 06:48:42;;;;;;;18.07;11.07;;;;;;;14.88;100.00;36675.03;5155797;27;20552;-61
2023/04/20 06:51:12;;;;;;;19.77;9.97;;;;;;;15.13;100.00;46794.78;5155683;27;20274;-60
2023/04/20 06:53:42;;;;;;;11.53;10.10;;;;;;;15.25;100.00;52032.53;5155892;27;20182;-60
2023/04/20 06:56:10;;;;;;;14.23;9.80;;;;;;;15.22;100.00;64150.38;5155930;27;20273;-60
2023/04/20 06:58:39;;;;;;;14.50;9.90;;;;;;;15.31;100.00;69744.34;5155565;27;20209;-60
2023/04/20 07:01:08;;;;;;;11.07;9.70;;;;;;;15.26;100.00;61857.78;5155351;27;20261;-61
2023/04/20 07:03:36;;;;;;;19.20;10.20;;;;;;;15.20;100.00;59229.56;5155900;27;20190;-59
2023/04/20 07:06:05;;;;;;;9.43;8.67;;;;;;;15.17;100.00;58243.69;5127765;27;20542;-60
2023/04/20 07:08:35;;;;;;;12.10;9.10;;;;;;;14.73;100.00;61802.34;5155136;27;20624;-60
2023/04/20 07:11:02;;;;;;;11.23;10.10;;;;;;;14.87;100.00;62472.28;5155327;27;20293;-62
2023/04/20 07:13:31;;;;;;;10.10;9.43;;;;;;;14.74;100.00;56564.66;5155341;27;20329;-61
2023/04/20 07:15:58;;;;;;;9.90;9.20;;;;;;;14.64;100.00;45451.50;5155227;27;20330;-60
2023/04/20 07:18:25;;;;;;;8.57;8.13;;;;;;;14.46;100.00;26584.78;5139570;27;20218;-60
2023/04/20 07:20:52;;;;;;;9.53;8.77;;;;;;;14.41;100.00;19136.75;5134386;27;20197;-61
2023/04/20 07:23:20;;;;;;;11.07;9.83;;;;;;;14.53;100.00;19788.06;5134400;27;20194;-61
2023/04/20 07:25:48;;;;;;;8.67;7.93;;;;;;;14.55;100.00;22377.88;5134375;27;20189;-61
2023/04/20 07:28:15;;;;;;;9.00;8.47;;;;;;;14.24;100.00;27546.22;5134222;27;20247;-61
2023/04/20 07:30:42;;;;;;;10.23;9.27;;;;;;;14.58;100.00;27239.31;5134549;27;20237;-60
2023/04/20 07:33:10;;;;;;;11.13;9.23;;;;;;;14.75;100.00;24653.84;5134562;27;20259;-61
2023/04/20 07:35:37;;;;;;;12.47;9.83;;;;;;;14.67;100.00;28540.72;5134318;27;20190;-61
2023/04/20 07:38:04;;;;;;;11.17;10.17;;;;;;;14.84;100.00;29523.47;5134168;27;20210;-61
2023/04/20 07:40:31;;;;;;;12.00;10.17;;;;;;;15.05;100.00;30184.19;5116052;27;20230;-60
2023/04/20 07:43:00;;;;;;;11.77;9.80;;;;;;;15.04;100.00;33107.59;5134178;27;20182;-61
2023/04/20 07:45:27;;;;;;;12.77;10.00;;;;;;;15.17;100.00;34090.53;5134175;27;20218;-60
2023/04/20 07:47:56;;;;;;;10.67;9.77;;;;;;;15.20;100.00;41581.09;5133867;27;20182;-61
2023/04/20 07:50:23;;;;;;;11.00;10.17;;;;;;;15.21;100.00;54973.47;5133857;27;20198;-61
2023/04/20 07:52:50;;;;;;;11.67;10.00;;;;;;;15.17;100.00;66442.53;5133948;27;20617;-60
2023/04/20 07:55:17;;;;;;;12.90;10.07;;;;;;;15.28;100.00;66454.50;5133752;27;20221;-61
2023/04/20 07:57:46;;;;;;;11.10;10.27;;;;;;;15.23;100.00;73680.78;5133051;27;20577;-59
2023/04/20 08:00:19;;;;;;;11.43;10.53;;;;;;;15.14;100.00;81904.91;5134079;27;20182;-61
2023/04/20 08:02:46;;;;;;;11.77;10.50;;;;;;;15.09;100.00;76955.31;5133828;27;20273;-61
2023/04/20 08:05:13;;;;;;;11.27;10.37;;;;;;;14.82;100.00;74945.97;5133805;27;20555;-61
2023/04/20 08:07:41;;;;;;;11.60;10.47;;;;;;;15.00;100.00;76285.66;5133791;27;20196;-61
2023/04/20 08:10:09;;;;;;;12.40;11.50;;;;;;;14.96;100.00;74634.28;5133691;27;20179;-60
2023/04/20 08:12:36;;;;;;;13.43;12.27;;;;;;;15.05;100.00;69384.66;5133217;27;20260;-61
2023/04/20 08:15:05;;;;;;;11.63;11.03;;;;;;;15.09;100.00;74980.66;5133738;27;20232;-60
2023/04/20 08:17:37;;;;;;;11.07;10.43;;;;;;;15.31;100.00;89194.31;5133662;27;20183;-60
2023/04/20 08:20:05;;;;;;;12.57;11.73;;;;;;;15.47;100.00;96170.13;5133613;27;20261;-61
2023/04/20 08:22:33;;;;;;;8.97;8.57;;;;;;;15.58;100.00;110800.13;5133434;27;20182;-60
2023/04/20 08:25:00;;;;;;;8.40;7.83;;;;;;;15.47;100.00;140879.34;5133177;27;20564;-61
2023/04/20 08:27:29;;;;;;;8.40;7.83;;;;;;;15.74;100.00;149993.00;5133512;27;20182;-60
2023/04/20 08:29:56;;;;;;;27.90;9.73;;;;;;;15.76;100.00;149998.06;5133368;27;20190;-60
2023/04/20 08:32:25;;;;;;;8.60;8.13;;;;;;;16.02;100.00;150064.06;5133394;27;20319;-60
2023/04/20 08:34:54;;;;;;;8.50;7.83;;;;;;;15.93;100.00;150041.22;5132905;27;20218;-60
2023/04/20 08:37:22;;;;;;;7.93;7.63;;;;;;;15.90;100.00;150034.88;5133154;27;20185;-60
2023/04/20 08:39:49;;;;;;;7.10;6.70;;;;;;;15.93;100.00;150042.50;5132621;27;20209;-60
2023/04/20 08:42:16;;;;;;;8.07;7.47;;;;;;;15.93;100.00;150041.22;5133128;27;20195;-61
2023/04/20 08:44:43;;;;;;;7.27;6.97;;;;;;;15.95;100.00;150047.56;5133093;27;20230;-61
2023/04/20 08:47:11;;;;;;;7.67;7.37;;;;;;;16.07;100.00;150076.78;5133035;27;20633;-60
2023/04/20 08:49:40;;;;;;;7.93;7.57;;;;;;;16.25;100.00;150121.22;5132555;27;20553;-60
2023/04/20 08:52:09;;;;;;;7.83;7.40;;;;;;;16.47;100.00;150177.06;5132562;27;20186;-60
2023/04/20 08:54:36;;;;;;;7.83;7.00;;;;;;;16.64;100.00;150220.28;5132626;27;20187;-61
2023/04/20 08:57:04;;;;;;;7.73;7.43;;;;;;;17.02;100.00;150315.53;5132716;27;20211;-61
2023/04/20 08:59:31;;;;;;;6.63;6.33;;;;;;;17.19;100.00;150358.72;5132399;27;20293;-60
2023/04/20 09:02:09;;;;;;;6.60;6.30;;;;;;;17.18;100.00;150354.94;5133030;27;20240;-60
2023/04/20 09:04:36;;;;;;;7.27;6.77;;;;;;;17.14;100.00;150344.78;5132760;27;20239;-62
2023/04/20 09:07:03;;;;;;;7.80;6.77;;;;;;;16.84;100.00;150271.13;5132385;27;20195;-62
2023/04/20 09:09:31;;;;;;;6.30;6.00;;;;;;;16.51;100.00;150185.97;5132389;27;20178;-61
2023/04/20 09:12:02;;;;;;;6.23;5.93;;;;;;;16.43;100.00;150166.91;5132557;27;20282;-62
2023/04/20 09:14:30;;;;;;;7.80;7.20;;;;;;;16.25;100.00;150122.44;5132331;27;20248;-60
2023/04/20 09:17:00;;;;;;;6.23;5.90;;;;;;;16.16;100.00;150099.63;5132584;27;20590;-60
2023/04/20 09:19:29;;;;;;;7.47;6.97;;;;;;;16.09;100.00;150081.81;5132194;27;20293;-61
2023/04/20 09:21:58;;;;;;;7.90;7.30;;;;;;;16.15;100.00;150097.09;5132560;27;20190;-61
2023/04/20 09:24:33;;;;;;;7.03;6.73;;;;;;;16.41;100.00;150163.13;5114178;27;20190;-61
2023/04/20 09:27:02;;;;;;;6.27;5.77;;;;;;;16.63;100.00;150217.78;5132366;27;20559;-60
2023/04/20 09:29:31;;;;;;;6.73;6.43;;;;;;;16.67;100.00;150227.94;5132112;27;20190;-62
2023/04/20 09:31:58;;;;;;;8.60;5.83;;;;;;;16.49;100.00;150182.16;5132212;27;20178;-62
2023/04/20 09:34:25;;;;;;;3.97;3.87;;;;;;;16.35;100.00;150147.84;5132448;27;20187;-60
2023/04/20 09:36:54;;;;;;;5.47;3.63;;;;;;;16.30;100.00;150133.88;5131984;27;20186;-62
2023/04/20 09:39:23;;;;;;;3.70;3.40;;;;;;;16.49;100.00;150182.16;5131878;27;20206;-61
2023/04/20 09:41:52;;;;;;;6.10;4.00;;;;;;;16.46;100.00;150175.78;5113386;27;20198;-61
2023/04/20 09:44:20;;;;;;;3.03;2.93;;;;;;;16.59;100.00;150207.56;5131775;27;20194;-61
2023/04/20 09:46:47;;;;;;;3.60;3.30;;;;;;;16.65;100.00;150221.56;5131907;27;20186;-61
2023/04/20 09:49:14;;;;;;;2.97;2.80;;;;;;;16.72;100.00;150240.59;5113771;28;20664;-60
2023/04/20 09:51:44;;;;;;;4.27;3.97;;;;;;;16.68;100.00;150230.44;5131926;28;20190;-61
2023/04/20 09:54:14;;;;;;;3.77;3.47;;;;;;;16.70;100.00;150235.53;5131952;28;20182;-61
2023/04/20 09:56:41;;;;;;;3.60;3.40;;;;;;;16.64;100.00;150219.00;5131663;28;20199;-61
2023/04/20 09:59:10;;;;;;;4.70;4.50;;;;;;;16.66;100.00;150225.38;5113313;28;20681;-61
2023/04/20 10:01:37;;;;;;;5.00;4.70;;;;;;;16.61;100.00;150212.66;5131398;28;20655;-61
2023/04/20 10:04:08;;;;;;;5.10;4.90;;;;;;;16.55;100.00;150197.38;5131663;28;20191;-61
2023/04/20 10:06:36;;;;;;;4.90;4.67;;;;;;;16.34;100.00;150145.31;5131655;28;20237;-60
2023/04/20 10:09:11;;;;;;;5.33;4.97;;;;;;;16.48;100.00;150179.59;5131239;28;20270;-62
2023/04/20 10:11:41;;;;;;;4.70;4.50;;;;;;;16.46;100.00;150174.53;5131948;28;20534;-61
2023/04/20 10:14:19;;;;;;;6.37;5.63;;;;;;;16.21;100.00;150112.28;5131670;28;20230;-61
2023/04/20 10:16:58;;;;;;;6.13;5.60;;;;;;;16.34;100.00;150144.03;5131501;28;20281;-60
2023/04/20 10:19:36;;;;;;;7.73;7.07;;;;;;;16.37;100.00;150151.69;5132468;28;20668;-59
2023/04/20 10:22:03;;;;;;;6.10;5.63;;;;;;;16.46;100.00;150175.78;5134510;27;20186;-59
2023/04/20 10:24:30;;;;;;;6.10;5.80;;;;;;;16.42;100.00;150164.38;5135948;27;20202;-61
2023/04/20 10:26:58;;;;;;;13.97;6.00;;;;;;;16.30;100.00;150135.16;5135610;27;20193;-59
2023/04/20 10:29:31;;;;;;;5.20;5.00;;;;;;;16.26;100.00;150123.72;5135715;27;20281;-60
2023/04/20 10:31:58;;;;;;;7.27;4.77;;;;;;;16.31;100.00;150136.44;5135354;27;20231;-60
2023/04/20 10:34:31;;;;;;;5.23;4.63;;;;;;;16.14;100.00;150093.25;5135709;27;20183;-59
2023/04/20 10:37:08;;;;;;;4.37;4.07;;;;;;;16.11;100.00;150085.66;5135224;27;20222;-60
2023/04/20 10:39:36;;;;;;;4.27;3.97;;;;;;;16.00;100.00;150060.25;5134945;27;20202;-59
2023/04/20 10:42:04;;;;;;;5.57;4.33;;;;;;;16.21;100.00;150111.06;5135237;27;20321;-60
2023/04/20 10:44:34;;;;;;;4.20;3.90;;;;;;;16.36;100.00;150150.41;5135365;27;20183;-61
2023/04/20 10:47:01;;;;;;;4.23;3.90;;;;;;;16.27;100.00;150126.28;5135378;27;20183;-61
2023/04/20 10:49:30;;;;;;;4.20;4.10;;;;;;;16.28;100.00;150130.09;5134986;27;20190;-60
2023/04/20 10:51:57;;;;;;;4.03;3.73;;;;;;;16.20;100.00;150109.78;5134839;27;20190;-60
2023/04/20 10:54:24;;;;;;;3.77;3.67;;;;;;;16.38;100.00;150154.19;5116496;27;20186;-60
2023/04/20 10:56:52;;;;;;;3.67;3.47;;;;;;;16.35;100.00;150146.59;5134683;27;20222;-60
2023/04/20 10:59:21;;;;;;;4.27;4.07;;;;;;;16.41;100.00;150161.84;5134483;27;20573;-59
2023/04/20 11:01:50;;;;;;;5.93;5.20;;;;;;;16.12;100.00;150088.22;5099852;27;20285;-59
2023/04/20 11:04:17;;;;;;;5.83;5.40;;;;;;;16.39;100.00;150158.00;5134800;27;20179;-60
2023/04/20 11:06:46;;;;;;;5.80;5.40;;;;;;;16.32;100.00;150140.25;5134766;27;20187;-59
2023/04/20 11:09:21;;;;;;;5.90;5.60;;;;;;;16.42;100.00;150164.38;5135029;27;20183;-60
2023/04/20 11:11:59;;;;;;;5.40;5.17;;;;;;;16.42;100.00;150164.38;5134943;27;20181;-60
2023/04/20 11:14:26;;;;;;;6.80;6.23;;;;;;;16.36;100.00;150150.41;5134359;27;20600;-60